createdAt,value
2018-12-01T00:00:23.292Z,38.07
2018-12-01T00:02:52.091Z,36.20
2018-12-01T00:05:20.710Z,41.87
2018-12-01T00:07:49.864Z,37.53
2018-12-01T00:10:18.537Z,39.97
2018-12-01T00:12:47.182Z,38.53
2018-12-01T00:15:17.323Z,38.97
2018-12-01T00:17:46.010Z,43.20
2018-12-01T00:20:16.852Z,40.20
2018-12-01T00:22:45.523Z,36.70
2018-12-01T00:25:14.126Z,38.53
2018-12-01T00:27:42.715Z,44.50
2018-12-01T00:30:15.439Z,45.80
2018-12-01T00:32:44.631Z,44.80
2018-12-01T00:35:13.567Z,39.53
2018-12-01T00:37:42.189Z,40.97
2018-12-01T00:40:19.123Z,40.90
2018-12-01T00:42:47.891Z,41.80
2018-12-01T00:45:21.224Z,45.07
2018-12-01T00:47:50.870Z,45.40
2018-12-01T00:50:20.537Z,45.30
2018-12-01T00:52:49.851Z,44.43
2018-12-01T00:55:19.118Z,47.20
2018-12-01T00:57:47.800Z,49.50
2018-12-01T01:00:22.892Z,50.73
2018-12-01T01:02:53.907Z,45.93
2018-12-01T01:05:23.371Z,46.53
2018-12-01T01:07:52.036Z,43.13
2018-12-01T01:10:21.567Z,48.90
2018-12-01T01:12:50.250Z,45.73
2018-12-01T01:15:18.868Z,45.57
2018-12-01T01:17:47.486Z,48.47
2018-12-01T01:20:17.028Z,39.60
2018-12-01T01:22:46.031Z,49.63
2018-12-01T01:25:14.991Z,42.73
2018-12-01T01:27:43.708Z,42.53
2018-12-01T01:30:15.224Z,42.13
2018-12-01T01:32:43.919Z,49.77
2018-12-01T01:35:12.739Z,48.87
2018-12-01T01:37:41.420Z,49.90
2018-12-01T01:40:14.877Z,46.00
2018-12-01T01:42:43.557Z,55.00
2018-12-01T01:45:15.212Z,50.13
2018-12-01T01:47:43.861Z,59.57
2018-12-01T01:50:14.376Z,54.60
2018-12-01T01:52:43.029Z,54.30
2018-12-01T01:55:12.261Z,47.03
2018-12-01T01:57:41.091Z,50.80
2018-12-01T02:00:13.975Z,51.27
2018-12-01T02:02:44.819Z,56.67
2018-12-01T02:05:13.481Z,50.80
2018-12-01T02:07:42.140Z,48.27
2018-12-01T02:10:11.664Z,52.17
2018-12-01T02:12:40.284Z,47.77
2018-12-01T02:15:09.928Z,42.17
2018-12-01T02:17:38.557Z,51.10
2018-12-01T02:20:13.415Z,50.73
2018-12-01T02:22:42.073Z,49.27
2018-12-01T02:25:11.643Z,53.63
2018-12-01T02:27:40.308Z,49.90
2018-12-01T02:30:10.353Z,48.80
2018-12-01T02:32:39.010Z,49.57
2018-12-01T02:35:09.258Z,44.37
2018-12-01T02:37:38.069Z,50.03
2018-12-01T02:40:09.012Z,47.57
2018-12-01T02:42:37.673Z,47.23
2018-12-01T02:45:17.328Z,45.30
2018-12-01T02:47:46.059Z,48.83
2018-12-01T02:50:15.072Z,55.57
2018-12-01T02:52:43.783Z,47.67
2018-12-01T02:55:12.422Z,55.57
2018-12-01T02:57:41.023Z,47.97
2018-12-01T03:00:11.792Z,49.63
2018-12-01T03:02:40.442Z,58.57
2018-12-01T03:05:10.355Z,50.57
2018-12-01T03:07:38.975Z,50.87
2018-12-01T03:10:13.901Z,54.70
2018-12-01T03:12:42.546Z,52.03
2018-12-01T03:15:12.220Z,49.50
2018-12-01T03:17:40.935Z,48.40
2018-12-01T03:20:16.808Z,48.00
2018-12-01T03:22:45.448Z,49.23
2018-12-01T03:25:21.619Z,53.30
2018-12-01T03:27:52.703Z,45.87
2018-12-01T03:30:22.206Z,49.73
2018-12-01T03:32:51.761Z,43.63
2018-12-01T03:35:20.979Z,52.93
2018-12-01T03:37:50.083Z,46.43
2018-12-01T03:40:19.476Z,41.93
2018-12-01T03:42:48.239Z,54.20
2018-12-01T03:45:17.848Z,47.47
2018-12-01T03:47:46.521Z,48.80
2018-12-01T03:50:22.170Z,41.90
2018-12-01T03:52:51.874Z,39.27
2018-12-01T03:55:29.043Z,42.83
2018-12-01T03:57:57.786Z,44.20
2018-12-01T04:00:26.494Z,47.57
2018-12-01T04:02:56.103Z,44.67
2018-12-01T04:05:24.767Z,62.57
2018-12-01T04:07:53.579Z,45.50
2018-12-01T04:10:22.246Z,48.87
2018-12-01T04:12:51.012Z,49.77
2018-12-01T04:15:19.740Z,51.67
2018-12-01T04:17:48.520Z,46.03
2018-12-01T04:20:17.201Z,47.27
2018-12-01T04:22:45.814Z,40.73
2018-12-01T04:25:14.478Z,43.47
2018-12-01T04:27:43.143Z,44.87
2018-12-01T04:30:17.572Z,42.40
2018-12-01T04:32:46.346Z,41.03
2018-12-01T04:35:23.903Z,43.57
2018-12-01T04:37:54.460Z,40.67
2018-12-01T04:40:23.223Z,41.67
2018-12-01T04:42:52.655Z,39.93
2018-12-01T04:45:21.327Z,47.50
2018-12-01T04:47:49.973Z,39.80
2018-12-01T04:50:19.071Z,52.77
2018-12-01T04:52:48.551Z,44.07
2018-12-01T04:55:18.248Z,47.27
2018-12-01T04:57:46.916Z,40.57
2018-12-01T05:00:19.351Z,43.67
2018-12-01T05:02:48.105Z,44.67
2018-12-01T05:05:18.791Z,52.13
2018-12-01T05:07:47.468Z,37.97
2018-12-01T05:10:16.701Z,49.13
2018-12-01T05:12:45.364Z,54.63
2018-12-01T05:15:17.710Z,50.97
2018-12-01T05:17:46.539Z,42.27
2018-12-01T05:20:22.683Z,41.33
2018-12-01T05:22:52.054Z,42.23
2018-12-01T05:25:20.701Z,43.50
2018-12-01T05:27:49.341Z,41.63
2018-12-01T05:30:18.013Z,40.93
2018-12-01T05:32:56.951Z,41.67
2018-12-01T05:35:25.804Z,44.47
2018-12-01T05:37:54.466Z,36.10
2018-12-01T05:40:29.723Z,42.70
2018-12-01T05:42:58.367Z,47.53
2018-12-01T05:45:26.993Z,39.33
2018-12-01T05:47:55.628Z,36.83
2018-12-01T05:50:27.862Z,41.53
2018-12-01T05:52:57.305Z,44.23
2018-12-01T05:55:26.064Z,42.40
2018-12-01T05:57:54.727Z,44.30
2018-12-01T06:00:23.388Z,38.53
2018-12-01T06:02:52.012Z,50.40
2018-12-01T06:05:21.215Z,47.10
2018-12-01T06:07:50.170Z,44.57
2018-12-01T06:10:20.727Z,40.57
2018-12-01T06:12:50.269Z,43.00
2018-12-01T06:15:19.635Z,44.13
2018-12-01T06:17:48.248Z,43.13
2018-12-01T06:20:19.912Z,48.70
2018-12-01T06:22:48.523Z,51.97
2018-12-01T06:25:18.748Z,45.97
2018-12-01T06:27:47.396Z,45.67
2018-12-01T06:30:18.276Z,48.13
2018-12-01T06:32:47.699Z,52.73
2018-12-01T06:35:16.324Z,41.53
2018-12-01T06:37:45.002Z,46.00
2018-12-01T06:40:15.956Z,39.70
2018-12-01T06:42:44.652Z,38.27
2018-12-01T06:45:14.052Z,44.80
2018-12-01T06:47:42.805Z,40.60
2018-12-01T06:50:15.484Z,47.00
2018-12-01T06:52:44.599Z,42.83
2018-12-01T06:55:14.331Z,48.93
2018-12-01T06:57:43.777Z,48.40
2018-12-01T07:00:18.444Z,38.27
2018-12-01T07:02:47.719Z,41.63
2018-12-01T07:05:16.836Z,40.90
2018-12-01T07:07:45.451Z,38.70
2018-12-01T07:10:15.207Z,38.27
2018-12-01T07:12:46.217Z,35.30
2018-12-01T07:15:16.040Z,65.63
2018-12-01T07:17:44.730Z,76.37
2018-12-01T07:20:13.493Z,33.17
2018-12-01T07:24:06.023Z,131.73
2018-12-01T07:26:34.624Z,38.10
2018-12-01T07:29:03.570Z,32.43
2018-12-01T07:31:32.200Z,33.20
2018-12-01T07:34:00.879Z,30.83
2018-12-01T07:36:29.484Z,39.80
2018-12-01T07:38:58.111Z,32.97
2018-12-01T07:41:26.725Z,34.47
2018-12-01T07:43:55.339Z,34.50
2018-12-01T07:46:23.941Z,36.10
2018-12-01T07:48:52.563Z,38.63
2018-12-01T07:51:21.151Z,37.67
2018-12-01T07:53:49.773Z,34.90
2018-12-01T07:56:18.394Z,32.70
2018-12-01T07:58:47.063Z,37.87
2018-12-01T08:01:15.675Z,30.87
2018-12-01T08:03:44.315Z,34.47
2018-12-01T08:06:12.965Z,35.23
2018-12-01T08:08:41.575Z,37.30
2018-12-01T08:11:10.198Z,35.77
2018-12-01T08:13:38.996Z,37.60
2018-12-01T08:16:07.642Z,32.80
2018-12-01T08:18:36.260Z,32.77
2018-12-01T08:21:05.059Z,31.57
2018-12-01T08:23:33.700Z,31.17
2018-12-01T08:26:02.312Z,32.53
2018-12-01T08:28:31.164Z,29.43
2018-12-01T08:30:59.777Z,33.60
2018-12-01T08:33:28.412Z,37.17
2018-12-01T08:35:57.837Z,33.63
2018-12-01T08:38:25.746Z,36.13
2018-12-01T08:40:54.357Z,31.57
2018-12-01T08:43:22.983Z,28.53
2018-12-01T08:45:51.608Z,28.37
2018-12-01T08:48:20.241Z,30.60
2018-12-01T08:50:48.892Z,30.47
2018-12-01T08:53:17.524Z,26.93
2018-12-01T08:55:46.137Z,29.37
2018-12-01T08:58:14.748Z,28.17
2018-12-01T09:00:43.519Z,26.67
2018-12-01T09:03:15.623Z,31.07
2018-12-01T09:05:44.250Z,33.03
2018-12-01T09:08:12.890Z,33.00
2018-12-01T09:10:41.596Z,32.03
2018-12-01T09:13:10.241Z,28.77
2018-12-01T09:15:38.864Z,27.93
2018-12-01T09:18:07.501Z,29.83
2018-12-01T09:20:36.112Z,26.87
2018-12-01T09:23:04.839Z,29.10
2018-12-01T09:25:33.464Z,28.63
2018-12-01T09:28:02.104Z,31.13
2018-12-01T09:30:32.000Z,29.07
2018-12-01T09:33:00.622Z,27.87
2018-12-01T09:35:29.252Z,27.10
2018-12-01T09:37:57.880Z,27.27
2018-12-01T09:40:26.494Z,23.13
2018-12-01T09:42:55.152Z,26.00
2018-12-01T09:45:24.779Z,25.47
2018-12-01T09:47:54.490Z,24.30
2018-12-01T09:50:23.136Z,27.20
2018-12-01T09:52:52.851Z,25.77
2018-12-01T09:55:23.565Z,26.53
2018-12-01T09:57:52.557Z,24.40
2018-12-01T10:00:27.293Z,24.07
2018-12-01T10:02:55.997Z,22.60
2018-12-01T10:05:24.639Z,23.73
2018-12-01T10:07:53.291Z,23.03
2018-12-01T10:10:22.801Z,33.17
2018-12-01T10:12:53.352Z,20.67
2018-12-01T10:15:23.895Z,23.77
2018-12-01T10:17:51.748Z,21.73
2018-12-01T10:20:24.696Z,19.13
2018-12-01T10:22:53.407Z,15.67
2018-12-01T10:25:22.052Z,12.50
2018-12-01T10:27:50.697Z,14.30
2018-12-01T10:30:20.216Z,12.97
2018-12-01T10:32:49.382Z,11.27
2018-12-01T10:35:19.072Z,11.97
2018-12-01T10:37:50.223Z,16.27
2018-12-01T10:40:18.867Z,12.57
2018-12-01T10:42:47.508Z,11.37
2018-12-01T10:45:17.085Z,13.23
2018-12-01T10:47:46.036Z,11.20
2018-12-01T10:55:09.800Z,15.30
2018-12-01T10:57:38.480Z,10.90
2018-12-01T11:00:15.061Z,10.67
2018-12-01T11:02:49.064Z,10.93
2018-12-01T11:05:17.776Z,14.73
2018-12-01T11:07:46.393Z,11.00
2018-12-01T11:10:14.992Z,7.80
2018-12-01T11:12:43.632Z,10.73
2018-12-01T11:15:12.268Z,12.27
2018-12-01T11:17:40.894Z,8.00
2018-12-01T11:20:10.639Z,7.60
2018-12-01T11:22:39.452Z,8.33
2018-12-01T11:25:11.348Z,6.43
2018-12-01T11:27:40.202Z,10.77
2018-12-01T11:30:14.645Z,6.03
2018-12-01T11:32:43.519Z,6.93
2018-12-01T11:35:12.163Z,6.50
2018-12-01T11:37:40.867Z,5.87
2018-12-01T11:40:11.592Z,5.67
2018-12-01T11:42:40.278Z,10.33
2018-12-01T11:45:10.425Z,7.83
2018-12-01T11:47:39.120Z,7.63
2018-12-01T11:50:10.143Z,5.73
2018-12-01T11:52:38.767Z,4.53
2018-12-01T11:55:09.932Z,8.10
2018-12-01T11:57:38.588Z,4.20
2018-12-01T12:01:54.363Z,6.50
2018-12-01T12:04:23.035Z,4.43
2018-12-01T12:06:51.722Z,6.37
2018-12-01T12:09:20.934Z,6.43
2018-12-01T12:11:49.975Z,4.77
2018-12-01T12:14:18.640Z,4.27
2018-12-01T12:16:47.304Z,5.87
2018-12-01T12:19:15.932Z,4.10
2018-12-01T12:21:44.740Z,3.77
2018-12-01T12:24:13.352Z,5.90
2018-12-01T12:26:41.975Z,6.63
2018-12-01T12:29:10.596Z,4.00
2018-12-01T12:31:39.279Z,4.97
2018-12-01T12:34:07.891Z,3.30
2018-12-01T12:36:36.523Z,7.17
2018-12-01T12:39:06.888Z,4.30
2018-12-01T12:41:35.507Z,7.77
2018-12-01T12:44:04.107Z,7.50
2018-12-01T12:46:34.060Z,5.40
2018-12-01T12:49:01.625Z,7.83
2018-12-01T12:51:30.279Z,5.10
2018-12-01T12:53:58.857Z,8.50
2018-12-01T12:56:27.466Z,5.37
2018-12-01T12:58:56.068Z,5.50
2018-12-01T13:01:24.693Z,3.70
2018-12-01T13:03:53.323Z,6.57
2018-12-01T13:06:21.939Z,3.60
2018-12-01T13:08:50.530Z,7.57
2018-12-01T13:11:19.160Z,5.20
2018-12-01T13:13:48.396Z,5.83
2018-12-01T13:16:17.004Z,5.40
2018-12-01T13:18:45.901Z,9.43
2018-12-01T13:21:14.607Z,6.03
2018-12-01T13:23:43.211Z,5.07
2018-12-01T13:26:11.895Z,5.07
2018-12-01T13:28:40.925Z,3.37
2018-12-01T13:31:09.579Z,6.03
2018-12-01T13:33:38.238Z,6.37
2018-12-01T13:36:06.968Z,7.17
2018-12-01T13:38:35.596Z,5.17
2018-12-01T13:41:04.278Z,4.90
2018-12-01T13:43:32.958Z,4.97
2018-12-01T13:46:01.556Z,5.73
2018-12-01T13:48:30.214Z,4.20
2018-12-01T13:50:58.817Z,6.13
2018-12-01T13:53:27.458Z,6.00
2018-12-01T13:55:56.199Z,5.10
2018-12-01T13:58:24.860Z,4.93
2018-12-01T14:00:53.514Z,5.10
2018-12-01T14:03:22.114Z,5.40
2018-12-01T14:05:50.778Z,7.50
2018-12-01T14:08:19.419Z,4.47
2018-12-01T14:10:49.981Z,5.97
2018-12-01T14:13:18.621Z,6.43
2018-12-01T14:17:32.824Z,5.40
2018-12-01T14:20:03.021Z,8.37
2018-12-01T14:22:32.264Z,8.07
2018-12-01T14:25:02.067Z,5.40
2018-12-01T14:27:31.257Z,6.30
2018-12-01T14:30:00.523Z,7.40
2018-12-01T14:32:29.727Z,6.47
2018-12-01T14:34:58.401Z,7.10
2018-12-01T14:37:27.023Z,7.03
2018-12-01T14:39:55.691Z,6.40
2018-12-01T14:42:24.342Z,6.17
2018-12-01T14:44:52.974Z,7.27
2018-12-01T14:47:28.328Z,7.37
2018-12-01T14:49:56.928Z,8.97
2018-12-01T14:52:25.583Z,8.87
2018-12-01T14:54:54.211Z,8.93
2018-12-01T14:57:22.816Z,8.93
2018-12-01T14:59:51.571Z,8.40
2018-12-01T15:02:20.197Z,12.33
2018-12-01T15:04:48.800Z,8.77
2018-12-01T15:07:17.419Z,10.07
2018-12-01T15:09:46.001Z,9.83
2018-12-01T15:12:14.676Z,10.53
2018-12-01T15:14:43.363Z,14.07
2018-12-01T15:17:11.965Z,10.60
2018-12-01T15:19:40.659Z,12.90
2018-12-01T15:22:09.304Z,12.27
2018-12-01T15:24:38.017Z,12.60
2018-12-01T15:27:06.883Z,12.50
2018-12-01T15:29:35.552Z,14.97
2018-12-01T15:32:04.240Z,14.40
2018-12-01T15:34:32.892Z,13.93
2018-12-01T15:37:01.603Z,11.90
2018-12-01T15:39:30.312Z,13.43
2018-12-01T15:41:58.978Z,15.83
2018-12-01T15:44:28.063Z,13.20
2018-12-01T15:46:56.711Z,14.60
2018-12-01T15:49:25.329Z,16.37
2018-12-01T15:51:54.031Z,15.90
2018-12-01T15:54:22.711Z,15.73
2018-12-01T15:56:51.348Z,15.53
2018-12-01T15:59:19.999Z,13.60
2018-12-01T16:01:48.640Z,14.83
2018-12-01T16:04:17.334Z,13.23
2018-12-01T16:06:46.003Z,15.37
2018-12-01T16:09:14.615Z,12.60
2018-12-01T16:11:43.259Z,15.27
2018-12-01T16:14:11.912Z,14.03
2018-12-01T16:16:40.594Z,15.53
2018-12-01T16:19:09.299Z,13.53
2018-12-01T16:21:37.988Z,11.70
2018-12-01T16:24:06.652Z,12.67
2018-12-01T16:26:35.271Z,13.67
2018-12-01T16:29:03.896Z,13.47
2018-12-01T16:31:32.527Z,13.63
2018-12-01T16:34:01.111Z,13.23
2018-12-01T16:36:29.758Z,14.80
2018-12-01T16:38:58.424Z,15.10
2018-12-01T16:41:29.779Z,13.43
2018-12-01T16:43:58.419Z,14.23
2018-12-01T16:46:27.072Z,16.00
2018-12-01T16:48:55.725Z,14.57
2018-12-01T16:51:24.488Z,15.93
2018-12-01T16:53:53.107Z,16.10
2018-12-01T16:56:21.888Z,15.63
2018-12-01T16:58:50.548Z,15.63
2018-12-01T17:01:19.239Z,15.60
2018-12-01T17:03:47.891Z,17.87
2018-12-01T17:06:19.484Z,16.67
2018-12-01T17:08:48.568Z,15.23
2018-12-01T17:11:17.263Z,17.50
2018-12-01T17:13:45.981Z,19.13
2018-12-01T17:16:14.619Z,21.93
2018-12-01T17:18:43.240Z,18.67
2018-12-01T17:21:12.644Z,15.77
2018-12-01T17:23:41.251Z,16.40
2018-12-01T17:26:09.975Z,16.80
2018-12-01T17:28:38.589Z,15.67
2018-12-01T17:31:07.732Z,28.30
2018-12-01T17:33:36.616Z,20.83
2018-12-01T17:36:05.431Z,18.43
2018-12-01T17:38:34.082Z,16.97
2018-12-01T17:41:06.352Z,16.27
2018-12-01T17:43:47.478Z,16.83
2018-12-01T17:46:16.164Z,16.50
2018-12-01T17:48:44.904Z,14.67
2018-12-01T17:51:13.559Z,13.97
2018-12-01T17:53:44.016Z,15.83
2018-12-01T17:56:12.438Z,16.23
2018-12-01T17:58:41.079Z,18.43
2018-12-01T18:01:09.720Z,16.27
2018-12-01T18:03:38.339Z,16.07
2018-12-01T18:06:10.437Z,18.07
2018-12-01T18:08:39.119Z,18.50
2018-12-01T18:11:09.372Z,18.53
2018-12-01T18:13:38.468Z,17.80
2018-12-01T18:16:07.846Z,20.43
2018-12-01T18:18:36.921Z,19.03
2018-12-01T18:21:05.850Z,18.47
2018-12-01T18:23:34.939Z,17.47
2018-12-01T18:26:06.365Z,16.63
2018-12-01T18:28:36.839Z,18.50
2018-12-01T18:31:09.877Z,21.37
2018-12-01T18:33:40.088Z,20.97
2018-12-01T18:36:10.551Z,21.20
2018-12-01T18:38:39.634Z,18.27
2018-12-01T18:41:08.835Z,16.10
2018-12-01T18:43:37.435Z,16.47
2018-12-01T18:46:09.239Z,16.47
2018-12-01T18:48:37.858Z,15.87
2018-12-01T18:51:06.551Z,14.60
2018-12-01T18:53:35.203Z,16.17
2018-12-01T18:56:04.531Z,17.00
2018-12-01T18:58:33.159Z,15.60
2018-12-01T19:01:02.144Z,15.00
2018-12-01T19:03:32.375Z,16.70
2018-12-01T19:06:07.878Z,15.87
2018-12-01T19:08:36.581Z,18.47
2018-12-01T19:11:06.052Z,18.17
2018-12-01T19:13:34.685Z,15.03
2018-12-01T19:16:04.059Z,17.13
2018-12-01T19:18:32.705Z,15.07
2018-12-01T19:21:01.387Z,16.57
2018-12-01T19:23:29.984Z,16.00
2018-12-01T19:25:58.607Z,17.50
2018-12-01T19:28:27.205Z,17.83
2018-12-01T19:30:55.849Z,17.27
2018-12-01T19:33:24.894Z,18.20
2018-12-01T19:35:55.571Z,17.47
2018-12-01T19:38:27.301Z,19.27
2018-12-01T19:40:57.000Z,16.37
2018-12-01T19:43:25.621Z,18.87
2018-12-01T19:45:54.225Z,17.43
2018-12-01T19:48:22.852Z,18.53
2018-12-01T19:50:51.492Z,18.17
2018-12-01T19:53:20.133Z,18.30
2018-12-01T19:55:51.082Z,19.03
2018-12-01T19:58:23.100Z,17.57
2018-12-01T20:00:54.227Z,18.23
2018-12-01T20:03:24.300Z,18.77
2018-12-01T20:05:52.955Z,20.40
2018-12-01T20:08:22.079Z,18.77
2018-12-01T20:11:05.799Z,18.17
2018-12-01T20:13:39.064Z,18.03
2018-12-01T20:16:24.643Z,20.27
2018-12-01T20:18:53.970Z,17.67
2018-12-01T20:21:23.073Z,20.43
2018-12-01T20:23:51.685Z,19.23
2018-12-01T20:26:20.363Z,23.30
2018-12-01T20:28:49.067Z,17.60
2018-12-01T20:31:17.687Z,18.47
2018-12-01T20:33:46.395Z,19.60
2018-12-01T20:36:25.363Z,18.13
2018-12-01T20:39:28.284Z,19.70
2018-12-01T20:41:56.987Z,17.63
2018-12-01T20:44:25.587Z,19.43
2018-12-01T20:46:54.491Z,20.37
2018-12-01T20:49:23.098Z,21.63
2018-12-01T20:51:51.933Z,19.07
2018-12-01T20:54:36.313Z,18.83
2018-12-01T20:57:18.047Z,19.03
2018-12-01T20:59:46.843Z,20.17
2018-12-01T21:02:15.451Z,20.57
2018-12-01T21:04:44.091Z,20.63
2018-12-01T21:07:12.719Z,23.53
2018-12-01T21:09:41.333Z,21.03
2018-12-01T21:12:11.560Z,19.73
2018-12-01T21:14:40.213Z,20.13
2018-12-01T21:17:08.855Z,21.23
2018-12-01T21:19:37.455Z,21.60
2018-12-01T21:22:07.027Z,21.63
2018-12-01T21:24:35.655Z,23.63
2018-12-01T21:27:04.377Z,23.53
2018-12-01T21:29:33.021Z,23.60
2018-12-01T21:32:01.643Z,21.27
2018-12-01T21:34:30.267Z,22.17
2018-12-01T21:36:58.899Z,20.97
2018-12-01T21:39:27.496Z,21.50
2018-12-01T21:41:56.131Z,21.40
2018-12-01T21:44:24.716Z,21.60
2018-12-01T21:46:53.339Z,23.67
2018-12-01T21:49:21.957Z,21.23
2018-12-01T21:51:50.591Z,21.83
2018-12-01T21:54:19.333Z,26.87
2018-12-01T21:56:47.935Z,26.30
2018-12-01T21:59:16.554Z,21.57
2018-12-01T22:01:45.159Z,22.23
2018-12-01T22:04:13.799Z,21.53
2018-12-01T22:06:42.436Z,22.77
2018-12-01T22:09:11.062Z,24.57
2018-12-01T22:11:39.695Z,22.50
2018-12-01T22:14:08.306Z,19.43
2018-12-01T22:16:36.931Z,19.77
2018-12-01T22:19:05.876Z,20.07
2018-12-01T22:21:34.519Z,18.47
2018-12-01T22:24:04.302Z,19.97
2018-12-01T22:26:32.913Z,20.23
2018-12-01T22:29:01.522Z,18.90
2018-12-01T22:31:30.139Z,18.67
2018-12-01T22:33:58.732Z,18.63
2018-12-01T22:36:27.347Z,19.53
2018-12-01T22:38:55.959Z,21.87
2018-12-01T22:41:24.562Z,24.10
2018-12-01T22:43:53.164Z,19.63
2018-12-01T22:46:21.789Z,19.73
2018-12-01T22:48:50.438Z,19.13
2018-12-01T22:51:19.060Z,19.77
2018-12-01T22:53:47.667Z,19.90
2018-12-01T22:56:16.268Z,19.10
2018-12-01T22:58:44.900Z,19.37
2018-12-01T23:01:13.528Z,19.77
2018-12-01T23:03:42.848Z,19.97
2018-12-01T23:06:11.496Z,20.50
2018-12-01T23:08:40.095Z,19.37
2018-12-01T23:11:08.735Z,19.30
2018-12-01T23:13:37.335Z,19.10
2018-12-01T23:16:06.087Z,20.13
2018-12-01T23:18:34.689Z,20.33
2018-12-01T23:21:03.479Z,21.37
2018-12-01T23:23:32.070Z,20.70
2018-12-01T23:26:00.675Z,17.80
2018-12-01T23:28:29.268Z,18.53
2018-12-01T23:30:57.884Z,23.03
2018-12-01T23:33:27.796Z,20.70
2018-12-01T23:35:56.488Z,19.37
2018-12-01T23:38:25.100Z,19.03
2018-12-01T23:40:53.741Z,20.47
2018-12-01T23:43:22.344Z,19.03
2018-12-01T23:45:50.969Z,19.23
2018-12-01T23:48:19.554Z,19.00
2018-12-01T23:50:54.863Z,18.67
2018-12-01T23:53:24.368Z,17.07
2018-12-01T23:55:53.188Z,17.60
2018-12-01T23:58:21.780Z,16.57
